sensor_id;sensor_type;location;lat;lon;timestamp;pressure;altitude;pressure_sealevel;temperature;humidity
68654;BME280;55636;51.108;13.622;2023-12-04T00:00:03;100947.00;;;-2.76;60.01
68654;BME280;55636;51.108;13.622;2023-12-04T00:01:13;100938.19;;;-2.78;59.99
68654;BME280;55636;51.108;13.622;2023-12-04T00:02:16;100941.88;;;-2.79;60.17
68654;BME280;55636;51.108;13.622;2023-12-04T00:03:20;100942.06;;;-2.80;60.14
68654;BME280;55636;51.108;13.622;2023-12-04T00:04:22;100943.91;;;-2.81;60.17
68654;BME280;55636;51.108;13.622;2023-12-04T00:05:25;100942.22;;;-2.82;60.03
68654;BME280;55636;51.108;13.622;2023-12-04T00:06:30;100944.22;;;-2.84;60.16
68654;BME280;55636;51.108;13.622;2023-12-04T00:07:32;100940.69;;;-2.84;59.98
68654;BME280;55636;51.108;13.622;2023-12-04T00:08:35;100945.22;;;-2.85;60.18
68654;BME280;55636;51.108;13.622;2023-12-04T00:09:38;100934.56;;;-2.87;60.04
68654;BME280;55636;51.108;13.622;2023-12-04T00:10:40;100936.44;;;-2.87;60.10
68654;BME280;55636;51.108;13.622;2023-12-04T00:11:43;100938.59;;;-2.91;60.09
68654;BME280;55636;51.108;13.622;2023-12-04T00:12:45;100943.16;;;-2.91;60.16
68654;BME280;55636;51.108;13.622;2023-12-04T00:13:47;100942.31;;;-2.92;60.01
68654;BME280;55636;51.108;13.622;2023-12-04T00:14:51;100942.31;;;-2.92;60.23
68654;BME280;55636;51.108;13.622;2023-12-04T00:15:54;100939.75;;;-2.93;60.27
68654;BME280;55636;51.108;13.622;2023-12-04T00:16:56;100938.06;;;-2.94;60.15
68654;BME280;55636;51.108;13.622;2023-12-04T00:17:58;100936.34;;;-2.95;60.32
68654;BME280;55636;51.108;13.622;2023-12-04T00:19:01;100932.66;;;-2.94;60.33
68654;BME280;55636;51.108;13.622;2023-12-04T00:20:04;100938.22;;;-2.96;60.34
68654;BME280;55636;51.108;13.622;2023-12-04T00:21:06;100934.84;;;-2.98;60.25
68654;BME280;55636;51.108;13.622;2023-12-04T00:22:10;100938.38;;;-2.97;60.36
68654;BME280;55636;51.108;13.622;2023-12-04T00:23:12;100931.28;;;-2.98;60.27
68654;BME280;55636;51.108;13.622;2023-12-04T00:24:15;100929.56;;;-2.99;60.30
68654;BME280;55636;51.108;13.622;2023-12-04T00:25:18;100923.47;;;-3.01;60.29
68654;BME280;55636;51.108;13.622;2023-12-04T00:26:21;100927.03;;;-3.01;60.28
68654;BME280;55636;51.108;13.622;2023-12-04T00:27:24;100932.59;;;-3.02;60.12
68654;BME280;55636;51.108;13.622;2023-12-04T00:28:29;100923.66;;;-3.03;60.24
68654;BME280;55636;51.108;13.622;2023-12-04T00:29:34;100925.47;;;-3.04;60.40
68654;BME280;55636;51.108;13.622;2023-12-04T00:30:36;100921.06;;;-3.05;60.29
68654;BME280;55636;51.108;13.622;2023-12-04T00:31:39;100915.84;;;-3.06;60.43
68654;BME280;55636;51.108;13.622;2023-12-04T00:32:41;100911.44;;;-3.07;60.28
68654;BME280;55636;51.108;13.622;2023-12-04T00:33:45;100910.75;;;-3.09;60.18
68654;BME280;55636;51.108;13.622;2023-12-04T00:34:47;100908.03;;;-3.09;60.43
68654;BME280;55636;51.108;13.622;2023-12-04T00:35:50;100905.34;;;-3.09;60.39
68654;BME280;55636;51.108;13.622;2023-12-04T00:36:52;100906.50;;;-3.12;60.56
68654;BME280;55636;51.108;13.622;2023-12-04T00:37:56;100900.41;;;-3.14;60.50
68654;BME280;55636;51.108;13.622;2023-12-04T00:39:00;100904.97;;;-3.14;60.41
68654;BME280;55636;51.108;13.622;2023-12-04T00:40:02;100903.25;;;-3.15;60.59
68654;BME280;55636;51.108;13.622;2023-12-04T00:41:05;100903.41;;;-3.17;60.64
68654;BME280;55636;51.108;13.622;2023-12-04T00:42:08;100903.59;;;-3.18;60.55
68654;BME280;55636;51.108;13.622;2023-12-04T00:43:10;100907.28;;;-3.19;60.56
68654;BME280;55636;51.108;13.622;2023-12-04T00:44:13;100907.44;;;-3.21;60.54
68654;BME280;55636;51.108;13.622;2023-12-04T00:45:15;100906.59;;;-3.22;60.46
68654;BME280;55636;51.108;13.622;2023-12-04T00:46:18;100912.16;;;-3.23;60.80
68654;BME280;55636;51.108;13.622;2023-12-04T00:47:20;100921.13;;;-3.23;60.66
68654;BME280;55636;51.108;13.622;2023-12-04T00:48:23;100913.16;;;-3.24;60.60
68654;BME280;55636;51.108;13.622;2023-12-04T00:49:26;100912.31;;;-3.25;60.64
68654;BME280;55636;51.108;13.622;2023-12-04T00:50:29;100912.47;;;-3.26;60.84
68654;BME280;55636;51.108;13.622;2023-12-04T00:51:38;100910.59;;;-3.26;60.75
68654;BME280;55636;51.108;13.622;2023-12-04T00:52:41;100909.94;;;-3.28;60.85
68654;BME280;55636;51.108;13.622;2023-12-04T00:53:43;100903.50;;;-3.27;60.80
68654;BME280;55636;51.108;13.622;2023-12-04T00:54:45;100911.75;;;-3.28;60.67
68654;BME280;55636;51.108;13.622;2023-12-04T00:55:48;100900.97;;;-3.28;60.92
68654;BME280;55636;51.108;13.622;2023-12-04T00:56:50;100901.94;;;-3.29;60.86
68654;BME280;55636;51.108;13.622;2023-12-04T00:57:52;100893.00;;;-3.30;60.87
68654;BME280;55636;51.108;13.622;2023-12-04T00:58:55;100894.00;;;-3.31;60.88
68654;BME280;55636;51.108;13.622;2023-12-04T00:59:57;100894.00;;;-3.31;60.93
68654;BME280;55636;51.108;13.622;2023-12-04T01:01:00;100887.78;;;-3.31;61.05
68654;BME280;55636;51.108;13.622;2023-12-04T01:02:06;100900.41;;;-3.32;61.00
68654;BME280;55636;51.108;13.622;2023-12-04T01:03:09;100897.72;;;-3.32;61.21
68654;BME280;55636;51.108;13.622;2023-12-04T01:04:11;100903.13;;;-3.32;61.11
68654;BME280;55636;51.108;13.622;2023-12-04T01:05:13;100917.66;;;-3.33;61.26
68654;BME280;55636;51.108;13.622;2023-12-04T01:06:22;100909.69;;;-3.34;61.47
68654;BME280;55636;51.108;13.622;2023-12-04T01:07:25;100905.97;;;-3.33;61.35
68654;BME280;55636;51.108;13.622;2023-12-04T01:08:28;100909.84;;;-3.36;61.44
68654;BME280;55636;51.108;13.622;2023-12-04T01:09:30;100905.31;;;-3.35;61.53
68654;BME280;55636;51.108;13.622;2023-12-04T01:10:34;100905.44;;;-3.37;61.53
68654;BME280;55636;51.108;13.622;2023-12-04T01:11:36;100918.94;;;-3.37;61.66
68654;BME280;55636;51.108;13.622;2023-12-04T01:12:39;100913.69;;;-3.39;61.56
68654;BME280;55636;51.108;13.622;2023-12-04T01:13:41;100917.41;;;-3.40;61.67
68654;BME280;55636;51.108;13.622;2023-12-04T01:14:44;100912.00;;;-3.40;61.74
68654;BME280;55636;51.108;13.622;2023-12-04T01:15:46;100915.84;;;-3.42;61.64
68654;BME280;55636;51.108;13.622;2023-12-04T01:16:52;100920.44;;;-3.43;61.59
68654;BME280;55636;51.108;13.622;2023-12-04T01:17:55;100919.75;;;-3.45;61.59
68654;BME280;55636;51.108;13.622;2023-12-04T01:18:57;100920.44;;;-3.43;61.66
68654;BME280;55636;51.108;13.622;2023-12-04T01:20:00;100921.41;;;-3.44;61.70
68654;BME280;55636;51.108;13.622;2023-12-04T01:21:03;100914.34;;;-3.45;61.78
68654;BME280;55636;51.108;13.622;2023-12-04T01:22:05;100917.03;;;-3.45;61.65
68654;BME280;55636;51.108;13.622;2023-12-04T01:23:08;100921.59;;;-3.45;61.61
68654;BME280;55636;51.108;13.622;2023-12-04T01:24:11;100928.16;;;-3.48;61.61
68654;BME280;55636;51.108;13.622;2023-12-04T01:25:13;100919.19;;;-3.48;61.75
68654;BME280;55636;51.108;13.622;2023-12-04T01:26:16;100921.75;;;-3.47;61.70
68654;BME280;55636;51.108;13.622;2023-12-04T01:27:18;100925.44;;;-3.48;61.69
68654;BME280;55636;51.108;13.622;2023-12-04T01:28:21;100920.91;;;-3.47;61.54
68654;BME280;55636;51.108;13.622;2023-12-04T01:29:24;100926.44;;;-3.49;61.63
68654;BME280;55636;51.108;13.622;2023-12-04T01:30:28;100927.47;;;-3.50;61.58
68654;BME280;55636;51.108;13.622;2023-12-04T01:31:30;100926.59;;;-3.50;61.56
68654;BME280;55636;51.108;13.622;2023-12-04T01:32:33;100932.16;;;-3.52;61.73
68654;BME280;55636;51.108;13.622;2023-12-04T01:33:35;100926.91;;;-3.54;61.61
68654;BME280;55636;51.108;13.622;2023-12-04T01:34:38;100931.44;;;-3.54;61.59
68654;BME280;55636;51.108;13.622;2023-12-04T01:35:40;100926.06;;;-3.54;61.61
68654;BME280;55636;51.108;13.622;2023-12-04T01:36:42;100929.78;;;-3.55;61.47
68654;BME280;55636;51.108;13.622;2023-12-04T01:37:45;100928.22;;;-3.58;61.57
68654;BME280;55636;51.108;13.622;2023-12-04T01:38:47;100930.94;;;-3.58;61.60
68654;BME280;55636;51.108;13.622;2023-12-04T01:39:50;100923.81;;;-3.59;61.50
68654;BME280;55636;51.108;13.622;2023-12-04T01:40:52;100926.53;;;-3.59;61.54
68654;BME280;55636;51.108;13.622;2023-12-04T01:41:54;100922.13;;;-3.60;61.48
68654;BME280;55636;51.108;13.622;2023-12-04T01:42:59;100922.13;;;-3.60;61.48
68654;BME280;55636;51.108;13.622;2023-12-04T01:44:01;100923.28;;;-3.62;61.43
68654;BME280;55636;51.108;13.622;2023-12-04T01:45:04;100921.56;;;-3.63;61.47
68654;BME280;55636;51.108;13.622;2023-12-04T01:46:08;100918.88;;;-3.63;61.38
68654;BME280;55636;51.108;13.622;2023-12-04T01:47:11;100919.03;;;-3.65;61.63
68654;BME280;55636;51.108;13.622;2023-12-04T01:48:14;100922.72;;;-3.66;61.46
68654;BME280;55636;51.108;13.622;2023-12-04T01:49:17;100921.06;;;-3.67;61.50
68654;BME280;55636;51.108;13.622;2023-12-04T01:50:19;100920.03;;;-3.66;61.46
68654;BME280;55636;51.108;13.622;2023-12-04T01:51:22;100919.34;;;-3.68;61.61
68654;BME280;55636;51.108;13.622;2023-12-04T01:52:26;100909.69;;;-3.71;61.59
68654;BME280;55636;51.108;13.622;2023-12-04T01:53:28;100909.97;;;-3.74;61.76
68654;BME280;55636;51.108;13.622;2023-12-04T01:54:31;100909.31;;;-3.76;61.54
68654;BME280;55636;51.108;13.622;2023-12-04T01:55:36;100911.00;;;-3.75;61.68
68654;BME280;55636;51.108;13.622;2023-12-04T01:56:40;100911.00;;;-3.75;61.57
68654;BME280;55636;51.108;13.622;2023-12-04T01:57:43;100914.72;;;-3.76;61.54
68654;BME280;55636;51.108;13.622;2023-12-04T01:58:46;100902.38;;;-3.78;61.64
68654;BME280;55636;51.108;13.622;2023-12-04T01:59:48;100916.69;;;-3.78;61.52
68654;BME280;55636;51.108;13.622;2023-12-04T02:00:52;100904.19;;;-3.79;61.47
68654;BME280;55636;51.108;13.622;2023-12-04T02:01:54;100904.19;;;-3.79;61.70
68654;BME280;55636;51.108;13.622;2023-12-04T02:03:02;100902.38;;;-3.78;61.68
68654;BME280;55636;51.108;13.622;2023-12-04T02:04:05;100902.66;;;-3.81;61.43
68654;BME280;55636;51.108;13.622;2023-12-04T02:05:08;100899.94;;;-3.81;61.72
68654;BME280;55636;51.108;13.622;2023-12-04T02:06:12;100891.31;;;-3.85;61.63
68654;BME280;55636;51.108;13.622;2023-12-04T02:07:15;100891.31;;;-3.85;61.56
68654;BME280;55636;51.108;13.622;2023-12-04T02:08:17;100894.31;;;-3.88;61.60
68654;BME280;55636;51.108;13.622;2023-12-04T02:09:20;100896.34;;;-3.90;61.77
68654;BME280;55636;51.108;13.622;2023-12-04T02:10:24;100895.47;;;-3.91;61.70
68654;BME280;55636;51.108;13.622;2023-12-04T02:11:28;100895.63;;;-3.92;61.68
68654;BME280;55636;51.108;13.622;2023-12-04T02:12:31;100887.84;;;-3.95;61.75
68654;BME280;55636;51.108;13.622;2023-12-04T02:13:33;100887.13;;;-3.97;61.78
68654;BME280;55636;51.108;13.622;2023-12-04T02:14:36;100883.44;;;-3.96;61.80
68654;BME280;55636;51.108;13.622;2023-12-04T02:15:38;100889.66;;;-3.96;61.60
68654;BME280;55636;51.108;13.622;2023-12-04T02:16:42;100877.19;;;-3.97;61.60
68654;BME280;55636;51.108;13.622;2023-12-04T02:17:46;100879.03;;;-3.97;61.67
68654;BME280;55636;51.108;13.622;2023-12-04T02:18:49;100875.66;;;-3.99;61.80
68654;BME280;55636;51.108;13.622;2023-12-04T02:19:52;100880.19;;;-4.00;61.66
68654;BME280;55636;51.108;13.622;2023-12-04T02:20:55;100877.47;;;-4.00;61.58
68654;BME280;55636;51.108;13.622;2023-12-04T02:21:58;100883.03;;;-4.01;61.62
68654;BME280;55636;51.108;13.622;2023-12-04T02:23:01;100890.31;;;-4.02;61.46
68654;BME280;55636;51.108;13.622;2023-12-04T02:24:04;100877.81;;;-4.03;61.55
68654;BME280;55636;51.108;13.622;2023-12-04T02:25:08;100877.81;;;-4.03;61.49
68654;BME280;55636;51.108;13.622;2023-12-04T02:26:34;100877.97;;;-4.05;61.53
68654;BME280;55636;51.108;13.622;2023-12-04T02:27:45;100875.94;;;-4.03;61.48
68654;BME280;55636;51.108;13.622;2023-12-04T02:28:55;100867.00;;;-4.03;61.55
68654;BME280;55636;51.108;13.622;2023-12-04T02:30:01;100871.69;;;-4.05;61.47
68654;BME280;55636;51.108;13.622;2023-12-04T02:31:05;100870.84;;;-4.06;61.56
68654;BME280;55636;51.108;13.622;2023-12-04T02:32:11;100876.25;;;-4.06;61.41
68654;BME280;55636;51.108;13.622;2023-12-04T02:33:17;100872.00;;;-4.08;61.54
68654;BME280;55636;51.108;13.622;2023-12-04T02:34:22;100872.84;;;-4.08;61.38
68654;BME280;55636;51.108;13.622;2023-12-04T02:35:29;100876.69;;;-4.10;61.52
68654;BME280;55636;51.108;13.622;2023-12-04T02:36:35;100868.75;;;-4.12;61.52
68654;BME280;55636;51.108;13.622;2023-12-04T02:37:39;100867.91;;;-4.12;61.37
68654;BME280;55636;51.108;13.622;2023-12-04T02:38:41;100862.53;;;-4.12;61.61
68654;BME280;55636;51.108;13.622;2023-12-04T02:39:44;100867.06;;;-4.13;61.39
68654;BME280;55636;51.108;13.622;2023-12-04T02:40:46;100869.91;;;-4.14;61.57
68654;BME280;55636;51.108;13.622;2023-12-04T02:41:51;100866.66;;;-4.18;61.75
68654;BME280;55636;51.108;13.622;2023-12-04T02:42:54;100856.72;;;-4.17;61.56
68654;BME280;55636;51.108;13.622;2023-12-04T02:43:56;100859.44;;;-4.17;61.77
68654;BME280;55636;51.108;13.622;2023-12-04T02:44:59;100854.19;;;-4.19;61.65
68654;BME280;55636;51.108;13.622;2023-12-04T02:46:01;100849.78;;;-4.20;61.85
68654;BME280;55636;51.108;13.622;2023-12-04T02:47:05;100852.31;;;-4.18;61.70
68654;BME280;55636;51.108;13.622;2023-12-04T02:48:07;100856.19;;;-4.21;61.70
68654;BME280;55636;51.108;13.622;2023-12-04T02:49:10;100847.25;;;-4.22;61.92
68654;BME280;55636;51.108;13.622;2023-12-04T02:50:12;100840.97;;;-4.22;61.86
68654;BME280;55636;51.108;13.622;2023-12-04T02:51:15;100838.44;;;-4.24;61.97
68654;BME280;55636;51.108;13.622;2023-12-04T02:52:17;100836.56;;;-4.23;61.76
68654;BME280;55636;51.108;13.622;2023-12-04T02:53:20;100830.66;;;-4.27;61.95
68654;BME280;55636;51.108;13.622;2023-12-04T02:54:22;100833.34;;;-4.27;61.92
68654;BME280;55636;51.108;13.622;2023-12-04T02:55:25;100822.84;;;-4.30;61.97
68654;BME280;55636;51.108;13.622;2023-12-04T02:56:28;100826.41;;;-4.29;61.92
68654;BME280;55636;51.108;13.622;2023-12-04T02:57:32;100827.41;;;-4.30;62.12
68654;BME280;55636;51.108;13.622;2023-12-04T02:58:35;100823.56;;;-4.28;62.14
68654;BME280;55636;51.108;13.622;2023-12-04T02:59:37;100820.16;;;-4.30;62.03
68654;BME280;55636;51.108;13.622;2023-12-04T03:00:42;100817.44;;;-4.30;62.12
68654;BME280;55636;51.108;13.622;2023-12-04T03:01:45;100823.56;;;-4.28;62.14
68654;BME280;55636;51.108;13.622;2023-12-04T03:02:47;100815.63;;;-4.29;62.12
68654;BME280;55636;51.108;13.622;2023-12-04T03:03:49;100815.31;;;-4.26;62.12
68654;BME280;55636;51.108;13.622;2023-12-04T03:04:52;100812.75;;;-4.28;62.03
68654;BME280;55636;51.108;13.622;2023-12-04T03:05:54;100815.47;;;-4.28;62.07
68654;BME280;55636;51.108;13.622;2023-12-04T03:06:57;100815.06;;;-4.33;62.31
68654;BME280;55636;51.108;13.622;2023-12-04T03:08:00;100815.06;;;-4.33;62.30
68654;BME280;55636;51.108;13.622;2023-12-04T03:09:03;100821.28;;;-4.32;62.40
68654;BME280;55636;51.108;13.622;2023-12-04T03:10:06;100818.75;;;-4.34;62.26
68654;BME280;55636;51.108;13.622;2023-12-04T03:11:09;100811.50;;;-4.33;62.27
68654;BME280;55636;51.108;13.622;2023-12-04T03:12:12;100822.28;;;-4.33;62.45
68654;BME280;55636;51.108;13.622;2023-12-04T03:13:14;100816.06;;;-4.34;62.30
68654;BME280;55636;51.108;13.622;2023-12-04T03:14:17;100815.91;;;-4.32;62.41
68654;BME280;55636;51.108;13.622;2023-12-04T03:15:19;100824.88;;;-4.32;62.60
68654;BME280;55636;51.108;13.622;2023-12-04T03:16:22;100827.41;;;-4.30;62.40
68654;BME280;55636;51.108;13.622;2023-12-04T03:17:24;100821.13;;;-4.31;62.35
68654;BME280;55636;51.108;13.622;2023-12-04T03:18:27;100827.41;;;-4.30;62.46
68654;BME280;55636;51.108;13.622;2023-12-04T03:19:31;100824.00;;;-4.32;62.42
68654;BME280;55636;51.108;13.622;2023-12-04T03:20:33;100821.13;;;-4.31;62.34
68654;BME280;55636;51.108;13.622;2023-12-04T03:21:36;100813.06;;;-4.31;62.31
68654;BME280;55636;51.108;13.622;2023-12-04T03:22:38;100813.22;;;-4.32;62.35
68654;BME280;55636;51.108;13.622;2023-12-04T03:23:40;100815.06;;;-4.33;62.25
68654;BME280;55636;51.108;13.622;2023-12-04T03:24:43;100818.44;;;-4.31;62.27
68654;BME280;55636;51.108;13.622;2023-12-04T03:25:46;100810.34;;;-4.31;62.31
68654;BME280;55636;51.108;13.622;2023-12-04T03:26:48;100806.81;;;-4.31;62.41
68654;BME280;55636;51.108;13.622;2023-12-04T03:27:50;100807.66;;;-4.31;62.24
68654;BME280;55636;51.108;13.622;2023-12-04T03:28:53;100813.91;;;-4.30;62.19
68654;BME280;55636;51.108;13.622;2023-12-04T03:29:55;100804.13;;;-4.31;62.26
68654;BME280;55636;51.108;13.622;2023-12-04T03:30:58;100817.59;;;-4.31;62.16
68654;BME280;55636;51.108;13.622;2023-12-04T03:32:00;100810.66;;;-4.34;62.27
68654;BME280;55636;51.108;13.622;2023-12-04T03:33:02;100800.72;;;-4.33;62.13
68654;BME280;55636;51.108;13.622;2023-12-04T03:34:05;100806.09;;;-4.33;62.33
68654;BME280;55636;51.108;13.622;2023-12-04T03:35:08;100798.88;;;-4.33;62.10
68654;BME280;55636;51.108;13.622;2023-12-04T03:36:10;100797.19;;;-4.34;62.09
68654;BME280;55636;51.108;13.622;2023-12-04T03:37:13;100799.72;;;-4.32;62.17
68654;BME280;55636;51.108;13.622;2023-12-04T03:38:15;100800.72;;;-4.33;62.01
68654;BME280;55636;51.108;13.622;2023-12-04T03:39:17;100800.88;;;-4.35;62.00
68654;BME280;55636;51.108;13.622;2023-12-04T03:40:20;100793.66;;;-4.34;62.11
68654;BME280;55636;51.108;13.622;2023-12-04T03:41:25;100795.47;;;-4.35;62.14
68654;BME280;55636;51.108;13.622;2023-12-04T03:42:27;100795.63;;;-4.37;61.97
68654;BME280;55636;51.108;13.622;2023-12-04T03:43:30;100793.94;;;-4.38;61.94
68654;BME280;55636;51.108;13.622;2023-12-04T03:44:32;100796.63;;;-4.38;62.15
68654;BME280;55636;51.108;13.622;2023-12-04T03:45:35;100800.34;;;-4.39;61.89
68654;BME280;55636;51.108;13.622;2023-12-04T03:46:37;100802.19;;;-4.39;61.97
68654;BME280;55636;51.108;13.622;2023-12-04T03:47:40;100795.78;;;-4.38;61.97
68654;BME280;55636;51.108;13.622;2023-12-04T03:48:42;100803.03;;;-4.39;61.90
68654;BME280;55636;51.108;13.622;2023-12-04T03:49:45;100797.66;;;-4.39;62.00
68654;BME280;55636;51.108;13.622;2023-12-04T03:50:47;100806.41;;;-4.37;61.88
68654;BME280;55636;51.108;13.622;2023-12-04T03:51:50;100803.03;;;-4.39;61.96
68654;BME280;55636;51.108;13.622;2023-12-04T03:52:52;100797.66;;;-4.39;61.86
68654;BME280;55636;51.108;13.622;2023-12-04T03:53:55;100795.78;;;-4.38;61.98
68654;BME280;55636;51.108;13.622;2023-12-04T03:54:57;100787.84;;;-4.40;62.00
68654;BME280;55636;51.108;13.622;2023-12-04T03:55:59;100798.47;;;-4.38;62.03
68654;BME280;55636;51.108;13.622;2023-12-04T03:57:02;100793.94;;;-4.38;61.92
68654;BME280;55636;51.108;13.622;2023-12-04T03:58:04;100793.09;;;-4.38;61.79
68654;BME280;55636;51.108;13.622;2023-12-04T03:59:08;100793.25;;;-4.40;61.73
68654;BME280;55636;51.108;13.622;2023-12-04T04:00:12;100788.84;;;-4.41;61.82
68654;BME280;55636;51.108;13.622;2023-12-04T04:01:15;100798.81;;;-4.41;62.01
68654;BME280;55636;51.108;13.622;2023-12-04T04:02:18;100792.53;;;-4.42;61.76
68654;BME280;55636;51.108;13.622;2023-12-04T04:03:21;100790.84;;;-4.43;61.99
68654;BME280;55636;51.108;13.622;2023-12-04T04:04:25;100798.09;;;-4.43;61.90
68654;BME280;55636;51.108;13.622;2023-12-04T04:05:28;100795.38;;;-4.43;61.91
68654;BME280;55636;51.108;13.622;2023-12-04T04:06:32;100791.97;;;-4.45;61.98
68654;BME280;55636;51.108;13.622;2023-12-04T04:07:35;100790.16;;;-4.45;62.00
68654;BME280;55636;51.108;13.622;2023-12-04T04:08:37;100774.13;;;-4.46;61.80
68654;BME280;55636;51.108;13.622;2023-12-04T04:09:40;100787.47;;;-4.45;61.97
68654;BME280;55636;51.108;13.622;2023-12-04T04:10:42;100786.91;;;-4.48;62.02
68654;BME280;55636;51.108;13.622;2023-12-04T04:11:46;100787.06;;;-4.50;62.05
68654;BME280;55636;51.108;13.622;2023-12-04T04:12:49;100785.19;;;-4.49;61.84
68654;BME280;55636;51.108;13.622;2023-12-04T04:13:52;100789.59;;;-4.48;61.98
68654;BME280;55636;51.108;13.622;2023-12-04T04:14:54;100785.19;;;-4.49;62.01
68654;BME280;55636;51.108;13.622;2023-12-04T04:15:56;100780.66;;;-4.49;62.02
68654;BME280;55636;51.108;13.622;2023-12-04T04:16:59;100778.97;;;-4.50;61.95
68654;BME280;55636;51.108;13.622;2023-12-04T04:18:01;100778.25;;;-4.52;61.96
68654;BME280;55636;51.108;13.622;2023-12-04T04:19:05;100781.81;;;-4.51;61.94
68654;BME280;55636;51.108;13.622;2023-12-04T04:20:08;100779.41;;;-4.55;61.99
68654;BME280;55636;51.108;13.622;2023-12-04T04:21:10;100780.41;;;-4.56;62.08
68654;BME280;55636;51.108;13.622;2023-12-04T04:22:13;100784.97;;;-4.56;62.05
68654;BME280;55636;51.108;13.622;2023-12-04T04:23:15;100786.81;;;-4.57;61.99
68654;BME280;55636;51.108;13.622;2023-12-04T04:24:18;100787.81;;;-4.58;62.15
68654;BME280;55636;51.108;13.622;2023-12-04T04:25:20;100775.16;;;-4.57;61.99
68654;BME280;55636;51.108;13.622;2023-12-04T04:26:24;100784.28;;;-4.58;61.89
68654;BME280;55636;51.108;13.622;2023-12-04T04:27:27;100772.78;;;-4.60;62.01
68654;BME280;55636;51.108;13.622;2023-12-04T04:28:31;100778.88;;;-4.58;62.09
68654;BME280;55636;51.108;13.622;2023-12-04T04:29:34;100769.94;;;-4.59;62.03
68654;BME280;55636;51.108;13.622;2023-12-04T04:30:36;100778.19;;;-4.60;62.07
68654;BME280;55636;51.108;13.622;2023-12-04T04:31:39;100770.09;;;-4.60;61.85
68654;BME280;55636;51.108;13.622;2023-12-04T04:32:41;100773.78;;;-4.61;62.00
68654;BME280;55636;51.108;13.622;2023-12-04T04:33:44;100763.97;;;-4.62;62.13
68654;BME280;55636;51.108;13.622;2023-12-04T04:34:46;100763.16;;;-4.63;61.93
68654;BME280;55636;51.108;13.622;2023-12-04T04:35:50;100769.38;;;-4.62;61.97
68654;BME280;55636;51.108;13.622;2023-12-04T04:36:52;100765.84;;;-4.63;62.04
68654;BME280;55636;51.108;13.622;2023-12-04T04:37:55;100766.84;;;-4.64;62.00
68654;BME280;55636;51.108;13.622;2023-12-04T04:38:57;100769.38;;;-4.62;61.93
68654;BME280;55636;51.108;13.622;2023-12-04T04:39:59;100762.31;;;-4.63;61.92
68654;BME280;55636;51.108;13.622;2023-12-04T04:41:03;100760.59;;;-4.64;62.03
68654;BME280;55636;51.108;13.622;2023-12-04T04:42:05;100757.91;;;-4.64;61.99
68654;BME280;55636;51.108;13.622;2023-12-04T04:43:09;100754.50;;;-4.66;62.06
68654;BME280;55636;51.108;13.622;2023-12-04T04:44:12;100749.09;;;-4.66;62.03
68654;BME280;55636;51.108;13.622;2023-12-04T04:45:14;100748.94;;;-4.65;62.03
68654;BME280;55636;51.108;13.622;2023-12-04T04:46:17;100751.81;;;-4.66;61.93
68654;BME280;55636;51.108;13.622;2023-12-04T04:47:19;100749.97;;;-4.66;62.04
68654;BME280;55636;51.108;13.622;2023-12-04T04:48:21;100750.09;;;-4.67;61.90
68654;BME280;55636;51.108;13.622;2023-12-04T04:49:24;100750.25;;;-4.69;62.01
68654;BME280;55636;51.108;13.622;2023-12-04T04:50:26;100756.53;;;-4.68;61.94
68654;BME280;55636;51.108;13.622;2023-12-04T04:51:29;100746.72;;;-4.70;61.99
68654;BME280;55636;51.108;13.622;2023-12-04T04:52:33;100755.66;;;-4.69;61.82
68654;BME280;55636;51.108;13.622;2023-12-04T04:53:35;100753.81;;;-4.68;62.00
68654;BME280;55636;51.108;13.622;2023-12-04T04:54:39;100753.94;;;-4.70;62.15
68654;BME280;55636;51.108;13.622;2023-12-04T04:55:41;100759.34;;;-4.70;61.96
68654;BME280;55636;51.108;13.622;2023-12-04T04:56:50;100753.94;;;-4.70;61.93
68654;BME280;55636;51.108;13.622;2023-12-04T04:57:53;100754.66;;;-4.68;61.86
68654;BME280;55636;51.108;13.622;2023-12-04T04:58:56;100755.50;;;-4.67;62.05
68654;BME280;55636;51.108;13.622;2023-12-04T04:59:58;100751.97;;;-4.68;61.95
68654;BME280;55636;51.108;13.622;2023-12-04T05:01:00;100759.22;;;-4.68;61.97
68654;BME280;55636;51.108;13.622;2023-12-04T05:02:03;100761.03;;;-4.69;62.04
68654;BME280;55636;51.108;13.622;2023-12-04T05:03:06;100755.66;;;-4.69;62.14
68654;BME280;55636;51.108;13.622;2023-12-04T05:04:08;100762.75;;;-4.68;62.19
68654;BME280;55636;51.108;13.622;2023-12-04T05:05:11;100753.94;;;-4.70;62.03
68654;BME280;55636;51.108;13.622;2023-12-04T05:06:14;100752.94;;;-4.69;62.10
68654;BME280;55636;51.108;13.622;2023-12-04T05:07:16;100748.44;;;-4.68;62.26
68654;BME280;55636;51.108;13.622;2023-12-04T05:08:19;100746.56;;;-4.68;62.11
68654;BME280;55636;51.108;13.622;2023-12-04T05:09:21;100752.81;;;-4.67;62.19
68654;BME280;55636;51.108;13.622;2023-12-04T05:10:23;100750.97;;;-4.67;62.22
68654;BME280;55636;51.108;13.622;2023-12-04T05:11:26;100754.50;;;-4.66;62.28
68654;BME280;55636;51.108;13.622;2023-12-04T05:12:28;100754.50;;;-4.66;62.19
68654;BME280;55636;51.108;13.622;2023-12-04T05:13:31;100753.50;;;-4.65;62.26
68654;BME280;55636;51.108;13.622;2023-12-04T05:14:33;100756.91;;;-4.63;62.40
68654;BME280;55636;51.108;13.622;2023-12-04T05:15:36;100756.06;;;-4.64;62.42
68654;BME280;55636;51.108;13.622;2023-12-04T05:16:38;100754.50;;;-4.66;62.44
68654;BME280;55636;51.108;13.622;2023-12-04T05:17:40;100750.81;;;-4.65;62.61
68654;BME280;55636;51.108;13.622;2023-12-04T05:18:43;100753.50;;;-4.65;62.43
68654;BME280;55636;51.108;13.622;2023-12-04T05:19:46;100755.38;;;-4.66;62.65
68654;BME280;55636;51.108;13.622;2023-12-04T05:20:50;100753.50;;;-4.65;62.71
68654;BME280;55636;51.108;13.622;2023-12-04T05:21:53;100749.81;;;-4.64;62.59
68654;BME280;55636;51.108;13.622;2023-12-04T05:22:56;100746.56;;;-4.68;62.74
68654;BME280;55636;51.108;13.622;2023-12-04T05:23:59;100749.09;;;-4.66;62.91
68654;BME280;55636;51.108;13.622;2023-12-04T05:25:01;100750.09;;;-4.67;62.70